sensor_id;sensor_type;location;lat;lon;timestamp;pressure;altitude;pressure_sealevel;temperature;humidity
10881;BME280;5493;48.884;8.338;2023-05-20T00:00:09;100345.56;;;13.97;100.00
10881;BME280;5493;48.884;8.338;2023-05-20T00:02:35;100346.44;;;14.14;100.00
10881;BME280;5493;48.884;8.338;2023-05-20T00:05:02;100353.44;;;14.10;100.00
10881;BME280;5493;48.884;8.338;2023-05-20T00:07:29;100346.00;;;14.17;100.00
10881;BME280;5493;48.884;8.338;2023-05-20T00:09:55;100344.50;;;13.98;100.00
10881;BME280;5493;48.884;8.338;2023-05-20T00:12:22;100347.22;;;13.98;100.00
10881;BME280;5493;48.884;8.338;2023-05-20T00:14:48;100351.69;;;13.93;100.00
10881;BME280;5493;48.884;8.338;2023-05-20T00:17:16;100338.75;;;13.95;100.00
10881;BME280;5493;48.884;8.338;2023-05-20T00:19:43;100346.28;;;13.93;100.00
10881;BME280;5493;48.884;8.338;2023-05-20T00:22:09;100348.31;;;13.86;100.00
10881;BME280;5493;48.884;8.338;2023-05-20T00:24:36;100343.00;;;13.91;100.00
10881;BME280;5493;48.884;8.338;2023-05-20T00:27:02;100339.03;;;13.82;100.00
10881;BME280;5493;48.884;8.338;2023-05-20T00:29:29;100336.44;;;13.75;100.00
10881;BME280;5493;48.884;8.338;2023-05-20T00:31:55;100335.25;;;13.82;100.00
10881;BME280;5493;48.884;8.338;2023-05-20T00:34:23;100335.97;;;13.78;100.00
10881;BME280;5493;48.884;8.338;2023-05-20T00:36:50;100325.00;;;13.85;100.00
10881;BME280;5493;48.884;8.338;2023-05-20T00:39:16;100339.47;;;13.90;100.00
10881;BME280;5493;48.884;8.338;2023-05-20T00:41:43;100340.28;;;13.91;100.00
10881;BME280;5493;48.884;8.338;2023-05-20T00:44:09;100333.09;;;13.96;100.00
10881;BME280;5493;48.884;8.338;2023-05-20T00:46:36;100338.06;;;13.88;100.00
10881;BME280;5493;48.884;8.338;2023-05-20T00:49:03;100336.28;;;13.93;100.00
10881;BME280;5493;48.884;8.338;2023-05-20T00:51:32;100335.75;;;14.08;100.00
10881;BME280;5493;48.884;8.338;2023-05-20T00:53:58;100340.16;;;13.97;100.00
10881;BME280;5493;48.884;8.338;2023-05-20T00:56:25;100333.78;;;14.03;100.00
10881;BME280;5493;48.884;8.338;2023-05-20T00:58:52;100331.47;;;14.23;100.00
10881;BME280;5493;48.884;8.338;2023-05-20T01:01:19;100342.63;;;13.99;100.00
10881;BME280;5493;48.884;8.338;2023-05-20T01:03:45;100340.50;;;14.01;100.00
10881;BME280;5493;48.884;8.338;2023-05-20T01:06:13;100342.25;;;14.07;100.00
10881;BME280;5493;48.884;8.338;2023-05-20T01:08:41;100336.69;;;14.13;100.00
10881;BME280;5493;48.884;8.338;2023-05-20T01:11:10;100332.22;;;14.07;100.00
10881;BME280;5493;48.884;8.338;2023-05-20T01:13:42;100338.91;;;14.16;100.00
10881;BME280;5493;48.884;8.338;2023-05-20T01:16:13;100344.22;;;14.11;100.00
10881;BME280;5493;48.884;8.338;2023-05-20T01:18:42;100342.00;;;14.08;100.00
10881;BME280;5493;48.884;8.338;2023-05-20T01:21:11;100340.56;;;14.17;100.00
10881;BME280;5493;48.884;8.338;2023-05-20T01:23:40;100341.13;;;14.19;100.00
10881;BME280;5493;48.884;8.338;2023-05-20T01:26:08;100338.53;;;14.24;100.00
10881;BME280;5493;48.884;8.338;2023-05-20T01:28:38;100334.28;;;14.28;100.00
10881;BME280;5493;48.884;8.338;2023-05-20T01:31:08;100343.22;;;14.29;100.00
10881;BME280;5493;48.884;8.338;2023-05-20T01:33:36;100340.66;;;14.34;100.00
10881;BME280;5493;48.884;8.338;2023-05-20T01:36:05;100332.63;;;14.39;100.00
10881;BME280;5493;48.884;8.338;2023-05-20T01:38:33;100329.19;;;14.60;100.00
10881;BME280;5493;48.884;8.338;2023-05-20T01:41:03;100327.94;;;14.51;100.00
10881;BME280;5493;48.884;8.338;2023-05-20T01:43:31;100321.44;;;14.52;100.00
10881;BME280;5493;48.884;8.338;2023-05-20T01:45:57;100320.66;;;14.68;100.00
10881;BME280;5493;48.884;8.338;2023-05-20T01:48:27;100308.31;;;14.61;100.00
10881;BME280;5493;48.884;8.338;2023-05-20T01:50:53;100311.59;;;14.63;100.00
10881;BME280;5493;48.884;8.338;2023-05-20T01:53:20;100314.78;;;14.60;100.00
10881;BME280;5493;48.884;8.338;2023-05-20T01:55:46;100310.44;;;14.59;100.00
10881;BME280;5493;48.884;8.338;2023-05-20T01:58:14;100319.44;;;14.48;100.00
10881;BME280;5493;48.884;8.338;2023-05-20T02:00:40;100312.41;;;14.47;100.00
10881;BME280;5493;48.884;8.338;2023-05-20T02:03:07;100307.06;;;14.52;100.00
10881;BME280;5493;48.884;8.338;2023-05-20T02:05:33;100303.78;;;14.50;100.00
10881;BME280;5493;48.884;8.338;2023-05-20T02:08:00;100304.59;;;14.50;100.00
10881;BME280;5493;48.884;8.338;2023-05-20T02:10:26;100304.00;;;14.48;100.00
10881;BME280;5493;48.884;8.338;2023-05-20T02:12:53;100301.56;;;14.47;100.00
10881;BME280;5493;48.884;8.338;2023-05-20T02:15:20;100295.88;;;14.48;100.00
10881;BME280;5493;48.884;8.338;2023-05-20T02:17:47;100289.66;;;14.36;100.00
10881;BME280;5493;48.884;8.338;2023-05-20T02:20:14;100291.91;;;14.39;100.00
10881;BME280;5493;48.884;8.338;2023-05-20T02:22:40;100283.44;;;14.36;100.00
10881;BME280;5493;48.884;8.338;2023-05-20T02:25:07;100281.78;;;14.35;100.00
10881;BME280;5493;48.884;8.338;2023-05-20T02:27:34;100270.22;;;14.56;100.00
10881;BME280;5493;48.884;8.338;2023-05-20T02:30:01;100277.19;;;14.35;100.00
10881;BME280;5493;48.884;8.338;2023-05-20T02:32:28;100270.56;;;14.43;100.00
10881;BME280;5493;48.884;8.338;2023-05-20T02:34:55;100274.00;;;14.38;100.00
10881;BME280;5493;48.884;8.338;2023-05-20T02:37:21;100280.97;;;14.34;100.00
10881;BME280;5493;48.884;8.338;2023-05-20T02:39:48;100271.84;;;14.40;100.00
10881;BME280;5493;48.884;8.338;2023-05-20T02:42:14;100274.56;;;14.40;100.00
10881;BME280;5493;48.884;8.338;2023-05-20T02:44:41;100274.25;;;14.53;100.00
10881;BME280;5493;48.884;8.338;2023-05-20T02:47:09;100277.03;;;14.42;100.00
10881;BME280;5493;48.884;8.338;2023-05-20T02:49:37;100274.75;;;14.50;100.00
10881;BME280;5493;48.884;8.338;2023-05-20T02:52:04;100278.69;;;14.43;100.00
10881;BME280;5493;48.884;8.338;2023-05-20T02:54:30;100274.16;;;14.48;100.00
10881;BME280;5493;48.884;8.338;2023-05-20T02:56:56;100283.63;;;14.46;100.00
10881;BME280;5493;48.884;8.338;2023-05-20T02:59:23;100281.41;;;14.43;100.00
10881;BME280;5493;48.884;8.338;2023-05-20T03:01:49;100284.28;;;14.53;100.00
10881;BME280;5493;48.884;8.338;2023-05-20T03:04:16;100283.56;;;14.57;100.00
10881;BME280;5493;48.884;8.338;2023-05-20T03:06:47;100282.22;;;14.43;100.00
10881;BME280;5493;48.884;8.338;2023-05-20T03:09:13;100288.31;;;14.50;100.00
10881;BME280;5493;48.884;8.338;2023-05-20T03:11:40;100284.28;;;14.53;100.00
10881;BME280;5493;48.884;8.338;2023-05-20T03:14:06;100296.38;;;14.34;100.00
10881;BME280;5493;48.884;8.338;2023-05-20T03:16:33;100286.41;;;14.51;100.00
10881;BME280;5493;48.884;8.338;2023-05-20T03:18:59;100284.94;;;14.43;100.00
10881;BME280;5493;48.884;8.338;2023-05-20T03:21:26;100289.22;;;14.39;100.00
10881;BME280;5493;48.884;8.338;2023-05-20T03:23:54;100294.31;;;14.36;100.00
10881;BME280;5493;48.884;8.338;2023-05-20T03:26:21;100293.72;;;14.22;100.00
10881;BME280;5493;48.884;8.338;2023-05-20T03:28:47;100296.59;;;14.15;100.00
10881;BME280;5493;48.884;8.338;2023-05-20T03:31:14;100299.41;;;14.20;100.00
10881;BME280;5493;48.884;8.338;2023-05-20T03:33:41;100295.53;;;14.16;100.00
10881;BME280;5493;48.884;8.338;2023-05-20T03:36:11;100297.78;;;14.08;100.00
10881;BME280;5493;48.884;8.338;2023-05-20T03:38:37;100302.38;;;14.07;100.00
10881;BME280;5493;48.884;8.338;2023-05-20T03:41:05;100295.56;;;14.05;100.00
10881;BME280;5493;48.884;8.338;2023-05-20T03:43:32;100298.63;;;14.08;100.00
10881;BME280;5493;48.884;8.338;2023-05-20T03:45:58;100297.41;;;14.16;100.00
10881;BME280;5493;48.884;8.338;2023-05-20T03:48:25;100298.56;;;14.20;100.00
10881;BME280;5493;48.884;8.338;2023-05-20T03:50:51;100301.72;;;14.28;100.00
10881;BME280;5493;48.884;8.338;2023-05-20T03:53:17;100303.63;;;14.28;100.00
10881;BME280;5493;48.884;8.338;2023-05-20T03:55:45;100302.78;;;14.27;100.00
10881;BME280;5493;48.884;8.338;2023-05-20T03:58:12;100304.31;;;14.35;100.00
10881;BME280;5493;48.884;8.338;2023-05-20T04:00:39;100301.78;;;14.45;100.00
10881;BME280;5493;48.884;8.338;2023-05-20T04:03:05;100303.19;;;14.48;100.00
10881;BME280;5493;48.884;8.338;2023-05-20T04:05:34;100314.53;;;14.45;100.00
10881;BME280;5493;48.884;8.338;2023-05-20T04:08:01;100305.94;;;14.36;100.00
10881;BME280;5493;48.884;8.338;2023-05-20T04:10:29;100310.66;;;14.41;100.00
10881;BME280;5493;48.884;8.338;2023-05-20T04:12:56;100299.25;;;14.27;100.00
10881;BME280;5493;48.884;8.338;2023-05-20T04:15:24;100307.97;;;14.29;100.00
10881;BME280;5493;48.884;8.338;2023-05-20T04:17:50;100304.84;;;14.20;100.00
10881;BME280;5493;48.884;8.338;2023-05-20T04:20:17;100309.53;;;14.25;100.00
10881;BME280;5493;48.884;8.338;2023-05-20T04:22:44;100298.34;;;14.21;100.00
10881;BME280;5493;48.884;8.338;2023-05-20T04:25:11;100301.97;;;14.27;100.00
10881;BME280;5493;48.884;8.338;2023-05-20T04:27:38;100306.22;;;14.23;100.00
10881;BME280;5493;48.884;8.338;2023-05-20T04:30:06;100303.22;;;14.08;100.00
10881;BME280;5493;48.884;8.338;2023-05-20T04:32:34;100304.72;;;14.15;100.00
10881;BME280;5493;48.884;8.338;2023-05-20T04:35:00;100303.03;;;14.26;100.00
10881;BME280;5493;48.884;8.338;2023-05-20T04:37:27;100301.47;;;14.02;100.00
10881;BME280;5493;48.884;8.338;2023-05-20T04:39:53;100309.13;;;14.05;100.00
10881;BME280;5493;48.884;8.338;2023-05-20T04:42:20;100308.94;;;14.23;100.00
10881;BME280;5493;48.884;8.338;2023-05-20T04:44:47;100309.09;;;14.16;100.00
10881;BME280;5493;48.884;8.338;2023-05-20T04:47:13;100297.38;;;14.27;100.00
10881;BME280;5493;48.884;8.338;2023-05-20T04:49:41;100296.34;;;14.17;100.00
10881;BME280;5493;48.884;8.338;2023-05-20T04:52:09;100297.94;;;14.29;100.00
10881;BME280;5493;48.884;8.338;2023-05-20T04:54:36;100298.19;;;14.40;100.00
10881;BME280;5493;48.884;8.338;2023-05-20T04:57:04;100287.16;;;14.46;100.00
10881;BME280;5493;48.884;8.338;2023-05-20T04:59:31;100294.31;;;14.52;100.00
10881;BME280;5493;48.884;8.338;2023-05-20T05:01:57;100292.31;;;14.48;100.00
10881;BME280;5493;48.884;8.338;2023-05-20T05:04:24;100293.53;;;14.40;100.00
10881;BME280;5493;48.884;8.338;2023-05-20T05:06:52;100286.03;;;14.30;100.00
10881;BME280;5493;48.884;8.338;2023-05-20T05:09:18;100283.53;;;14.41;100.00
10881;BME280;5493;48.884;8.338;2023-05-20T05:11:45;100282.13;;;14.55;100.00
10881;BME280;5493;48.884;8.338;2023-05-20T05:14:11;100277.81;;;14.54;100.00
10881;BME280;5493;48.884;8.338;2023-05-20T05:16:38;100284.44;;;14.46;100.00
10881;BME280;5493;48.884;8.338;2023-05-20T05:19:04;100282.06;;;14.50;100.00
10881;BME280;5493;48.884;8.338;2023-05-20T05:21:31;100280.41;;;14.49;100.00
10881;BME280;5493;48.884;8.338;2023-05-20T05:23:59;100277.59;;;14.44;100.00
10881;BME280;5493;48.884;8.338;2023-05-20T05:26:26;100273.75;;;14.40;100.00
10881;BME280;5493;48.884;8.338;2023-05-20T05:28:53;100268.25;;;14.23;100.00
10881;BME280;5493;48.884;8.338;2023-05-20T05:31:19;100261.50;;;14.37;100.00
10881;BME280;5493;48.884;8.338;2023-05-20T05:33:46;100256.97;;;14.76;100.00
10881;BME280;5493;48.884;8.338;2023-05-20T05:36:12;100255.78;;;15.05;100.00
10881;BME280;5493;48.884;8.338;2023-05-20T05:38:39;100257.06;;;15.36;100.00
10881;BME280;5493;48.884;8.338;2023-05-20T05:41:07;100261.28;;;15.65;100.00
10881;BME280;5493;48.884;8.338;2023-05-20T05:43:33;100268.22;;;15.78;100.00
10881;BME280;5493;48.884;8.338;2023-05-20T05:46:00;100267.03;;;15.96;100.00
10881;BME280;5493;48.884;8.338;2023-05-20T05:48:27;100270.06;;;15.99;100.00
10881;BME280;5493;48.884;8.338;2023-05-20T05:50:53;100262.63;;;15.46;100.00
10881;BME280;5493;48.884;8.338;2023-05-20T05:53:20;100263.69;;;15.89;100.00
10881;BME280;5493;48.884;8.338;2023-05-20T05:55:46;100263.03;;;15.38;100.00
10881;BME280;5493;48.884;8.338;2023-05-20T05:58:14;100255.94;;;15.75;100.00
10881;BME280;5493;48.884;8.338;2023-05-20T06:00:41;100252.59;;;15.90;100.00
10881;BME280;5493;48.884;8.338;2023-05-20T06:03:07;100258.88;;;15.96;100.00
10881;BME280;5493;48.884;8.338;2023-05-20T06:05:34;100262.41;;;15.69;100.00
10881;BME280;5493;48.884;8.338;2023-05-20T06:08:00;100259.72;;;15.74;100.00
10881;BME280;5493;48.884;8.338;2023-05-20T06:10:27;100257.09;;;16.06;100.00
10881;BME280;5493;48.884;8.338;2023-05-20T06:12:53;100255.44;;;16.32;100.00
10881;BME280;5493;48.884;8.338;2023-05-20T06:15:21;100262.59;;;16.11;100.00
10881;BME280;5493;48.884;8.338;2023-05-20T06:17:48;100252.81;;;15.89;100.00
10881;BME280;5493;48.884;8.338;2023-05-20T06:20:15;100254.69;;;15.83;100.00
10881;BME280;5493;48.884;8.338;2023-05-20T06:22:41;100254.38;;;16.06;100.00
10881;BME280;5493;48.884;8.338;2023-05-20T06:25:09;100249.06;;;16.16;100.00
10881;BME280;5493;48.884;8.338;2023-05-20T06:27:35;100250.69;;;16.17;100.00
10881;BME280;5493;48.884;8.338;2023-05-20T06:30:02;100244.88;;;16.36;100.00
10881;BME280;5493;48.884;8.338;2023-05-20T06:32:30;100241.09;;;16.63;100.00
10881;BME280;5493;48.884;8.338;2023-05-20T06:34:57;100246.66;;;16.84;100.00
10881;BME280;5493;48.884;8.338;2023-05-20T06:37:23;100240.81;;;17.02;100.00
10881;BME280;5493;48.884;8.338;2023-05-20T06:39:51;100236.03;;;17.29;100.00
10881;BME280;5493;48.884;8.338;2023-05-20T06:42:18;100239.63;;;16.88;100.00
10881;BME280;5493;48.884;8.338;2023-05-20T06:44:45;100238.03;;;16.97;100.00
10881;BME280;5493;48.884;8.338;2023-05-20T06:47:13;100228.19;;;17.38;100.00
10881;BME280;5493;48.884;8.338;2023-05-20T06:49:41;100237.59;;;17.62;100.00
10881;BME280;5493;48.884;8.338;2023-05-20T06:52:07;100225.69;;;17.93;100.00
10881;BME280;5493;48.884;8.338;2023-05-20T06:54:34;100228.78;;;18.73;100.00
10881;BME280;5493;48.884;8.338;2023-05-20T06:57:04;100231.84;;;19.65;100.00
10881;BME280;5493;48.884;8.338;2023-05-20T06:59:31;100232.63;;;20.20;100.00
10881;BME280;5493;48.884;8.338;2023-05-20T07:01:57;100227.09;;;19.17;100.00
10881;BME280;5493;48.884;8.338;2023-05-20T07:04:24;100231.47;;;19.87;100.00
10881;BME280;5493;48.884;8.338;2023-05-20T07:06:52;100229.78;;;19.27;100.00
10881;BME280;5493;48.884;8.338;2023-05-20T07:09:19;100228.44;;;20.38;100.00
10881;BME280;5493;48.884;8.338;2023-05-20T07:11:45;100227.97;;;19.82;100.00
10881;BME280;5493;48.884;8.338;2023-05-20T07:14:12;100221.16;;;20.18;100.00
10881;BME280;5493;48.884;8.338;2023-05-20T07:16:38;100216.75;;;19.78;100.00
10881;BME280;5493;48.884;8.338;2023-05-20T07:19:05;100219.41;;;19.19;100.00
10881;BME280;5493;48.884;8.338;2023-05-20T07:21:31;100217.09;;;19.61;100.00
10881;BME280;5493;48.884;8.338;2023-05-20T07:23:59;100212.59;;;19.11;100.00
10881;BME280;5493;48.884;8.338;2023-05-20T07:26:25;100212.31;;;19.23;100.00
10881;BME280;5493;48.884;8.338;2023-05-20T07:28:52;100210.63;;;19.32;100.00
10881;BME280;5493;48.884;8.338;2023-05-20T07:31:18;100200.63;;;19.02;100.00
10881;BME280;5493;48.884;8.338;2023-05-20T07:33:45;100195.72;;;18.94;100.00
10881;BME280;5493;48.884;8.338;2023-05-20T07:36:11;100204.22;;;18.73;100.00
10881;BME280;5493;48.884;8.338;2023-05-20T07:38:38;100197.38;;;18.45;100.00
10881;BME280;5493;48.884;8.338;2023-05-20T07:41:06;100191.34;;;18.38;100.00
10881;BME280;5493;48.884;8.338;2023-05-20T07:43:33;100197.94;;;18.27;100.00
10881;BME280;5493;48.884;8.338;2023-05-20T07:45:59;100190.53;;;18.88;100.00
10881;BME280;5493;48.884;8.338;2023-05-20T07:48:26;100185.84;;;19.03;100.00
10881;BME280;5493;48.884;8.338;2023-05-20T07:50:52;100179.25;;;19.20;100.00
10881;BME280;5493;48.884;8.338;2023-05-20T07:53:21;100174.75;;;19.54;100.00
10881;BME280;5493;48.884;8.338;2023-05-20T07:55:47;100184.44;;;19.85;100.00
10881;BME280;5493;48.884;8.338;2023-05-20T07:58:15;100176.88;;;19.67;100.00
10881;BME280;5493;48.884;8.338;2023-05-20T08:00:43;100170.50;;;19.77;100.00
10881;BME280;5493;48.884;8.338;2023-05-20T08:03:10;100172.34;;;20.30;100.00
10881;BME280;5493;48.884;8.338;2023-05-20T08:05:36;100174.69;;;20.08;100.00
10881;BME280;5493;48.884;8.338;2023-05-20T08:08:03;100166.69;;;20.17;100.00
10881;BME280;5493;48.884;8.338;2023-05-20T08:10:30;100175.47;;;19.70;100.00
10881;BME280;5493;48.884;8.338;2023-05-20T08:12:57;100167.94;;;20.63;100.00
10881;BME280;5493;48.884;8.338;2023-05-20T08:15:25;100151.38;;;21.02;100.00
10881;BME280;5493;48.884;8.338;2023-05-20T08:17:51;100155.00;;;21.45;100.00
10881;BME280;5493;48.884;8.338;2023-05-20T08:20:18;100151.50;;;22.33;100.00
10881;BME280;5493;48.884;8.338;2023-05-20T08:22:45;100135.28;;;22.50;100.00
10881;BME280;5493;48.884;8.338;2023-05-20T08:25:11;100134.94;;;23.38;100.00
10881;BME280;5493;48.884;8.338;2023-05-20T08:27:38;100134.13;;;23.24;100.00
10881;BME280;5493;48.884;8.338;2023-05-20T08:30:06;100137.59;;;22.75;100.00
10881;BME280;5493;48.884;8.338;2023-05-20T08:32:35;100137.22;;;21.80;100.00
10881;BME280;5493;48.884;8.338;2023-05-20T08:35:02;100135.47;;;22.21;100.00
10881;BME280;5493;48.884;8.338;2023-05-20T08:37:29;100132.41;;;21.90;100.00
10881;BME280;5493;48.884;8.338;2023-05-20T08:39:55;100128.16;;;21.79;100.00
10881;BME280;5493;48.884;8.338;2023-05-20T08:42:22;100120.59;;;21.90;100.00
10881;BME280;5493;48.884;8.338;2023-05-20T08:44:50;100127.19;;;21.33;100.00
10881;BME280;5493;48.884;8.338;2023-05-20T08:47:18;100132.84;;;21.41;100.00
10881;BME280;5493;48.884;8.338;2023-05-20T08:49:47;100126.53;;;20.93;100.00
10881;BME280;5493;48.884;8.338;2023-05-20T08:52:15;100120.41;;;21.01;100.00
10881;BME280;5493;48.884;8.338;2023-05-20T08:54:44;100115.34;;;21.14;100.00
10881;BME280;5493;48.884;8.338;2023-05-20T08:57:11;100110.81;;;21.46;100.00
10881;BME280;5493;48.884;8.338;2023-05-20T08:59:40;100108.88;;;21.66;100.00
10881;BME280;5493;48.884;8.338;2023-05-20T09:02:07;100119.94;;;22.17;100.00
10881;BME280;5493;48.884;8.338;2023-05-20T09:04:34;100124.50;;;22.53;100.00
10881;BME280;5493;48.884;8.338;2023-05-20T09:07:02;100120.59;;;23.41;100.00
10881;BME280;5493;48.884;8.338;2023-05-20T09:09:32;100118.84;;;23.81;100.00
10881;BME280;5493;48.884;8.338;2023-05-20T09:11:59;100128.50;;;23.92;100.00
10881;BME280;5493;48.884;8.338;2023-05-20T09:14:25;100132.94;;;23.44;100.00
10881;BME280;5493;48.884;8.338;2023-05-20T09:16:52;100129.66;;;23.01;100.00
10881;BME280;5493;48.884;8.338;2023-05-20T09:19:20;100134.16;;;23.87;100.00
10881;BME280;5493;48.884;8.338;2023-05-20T09:21:47;100138.28;;;23.63;100.00
10881;BME280;5493;48.884;8.338;2023-05-20T09:24:19;100139.56;;;22.56;100.00
10881;BME280;5493;48.884;8.338;2023-05-20T09:26:45;100137.03;;;22.27;100.00
10881;BME280;5493;48.884;8.338;2023-05-20T09:29:12;100138.75;;;22.55;100.00
10881;BME280;5493;48.884;8.338;2023-05-20T09:31:39;100133.25;;;23.78;100.00
10881;BME280;5493;48.884;8.338;2023-05-20T09:34:06;100127.13;;;24.03;100.00
10881;BME280;5493;48.884;8.338;2023-05-20T09:36:34;100127.31;;;23.85;100.00
10881;BME280;5493;48.884;8.338;2023-05-20T09:39:02;100121.97;;;23.88;100.00
10881;BME280;5493;48.884;8.338;2023-05-20T09:41:33;100117.00;;;24.13;100.00
10881;BME280;5493;48.884;8.338;2023-05-20T09:44:01;100116.88;;;24.40;100.00
10881;BME280;5493;48.884;8.338;2023-05-20T09:46:28;100114.88;;;23.87;100.00
10881;BME280;5493;48.884;8.338;2023-05-20T09:48:56;100104.44;;;23.84;100.00
10881;BME280;5493;48.884;8.338;2023-05-20T09:51:22;100101.59;;;24.12;100.00
10881;BME280;5493;48.884;8.338;2023-05-20T09:53:50;100098.28;;;23.16;100.00
10881;BME280;5493;48.884;8.338;2023-05-20T09:56:19;100111.84;;;24.42;100.00
10881;BME280;5493;48.884;8.338;2023-05-20T09:58:48;100105.59;;;23.83;100.00
10881;BME280;5493;48.884;8.338;2023-05-20T10:01:16;100103.03;;;23.37;100.00
10881;BME280;5493;48.884;8.338;2023-05-20T10:03:43;100095.91;;;24.30;100.00
10881;BME280;5493;48.884;8.338;2023-05-20T10:06:29;100090.63;;;24.73;100.00
10881;BME280;5493;48.884;8.338;2023-05-20T10:09:13;100089.69;;;24.47;100.00
10881;BME280;5493;48.884;8.338;2023-05-20T10:11:47;100083.38;;;24.24;100.00
10881;BME280;5493;48.884;8.338;2023-05-20T10:14:30;100084.59;;;24.71;100.00
10881;BME280;5493;48.884;8.338;2023-05-20T10:17:06;100087.13;;;24.90;100.00
10881;BME280;5493;48.884;8.338;2023-05-20T10:19:35;100091.22;;;25.01;100.00
10881;BME280;5493;48.884;8.338;2023-05-20T10:22:03;100087.44;;;24.05;100.00
10881;BME280;5493;48.884;8.338;2023-05-20T10:24:31;100092.13;;;23.82;100.00
10881;BME280;5493;48.884;8.338;2023-05-20T10:27:00;100071.44;;;24.68;100.00
10881;BME280;5493;48.884;8.338;2023-05-20T10:29:28;100074.69;;;24.31;100.00
10881;BME280;5493;48.884;8.338;2023-05-20T10:31:55;100071.28;;;24.12;100.00
10881;BME280;5493;48.884;8.338;2023-05-20T10:34:22;100065.44;;;25.14;100.00
10881;BME280;5493;48.884;8.338;2023-05-20T10:36:57;100063.34;;;25.03;100.00
10881;BME280;5493;48.884;8.338;2023-05-20T10:39:25;100066.44;;;25.10;100.00
10881;BME280;5493;48.884;8.338;2023-05-20T10:41:52;100071.22;;;24.87;100.00
10881;BME280;5493;48.884;8.338;2023-05-20T10:44:18;100067.72;;;24.11;100.00
10881;BME280;5493;48.884;8.338;2023-05-20T10:47:00;100067.41;;;24.66;100.00
10881;BME280;5493;48.884;8.338;2023-05-20T10:49:32;100056.06;;;24.76;100.00
10881;BME280;5493;48.884;8.338;2023-05-20T10:51:59;100058.00;;;25.15;100.00
10881;BME280;5493;48.884;8.338;2023-05-20T10:54:25;100052.66;;;26.13;99.31
10881;BME280;5493;48.884;8.338;2023-05-20T10:56:53;100055.78;;;25.42;100.00
10881;BME280;5493;48.884;8.338;2023-05-20T10:59:20;100053.16;;;25.37;100.00
10881;BME280;5493;48.884;8.338;2023-05-20T11:01:48;100055.16;;;24.89;100.00
10881;BME280;5493;48.884;8.338;2023-05-20T11:04:15;100058.91;;;24.84;100.00
10881;BME280;5493;48.884;8.338;2023-05-20T11:06:49;100048.34;;;24.86;100.00
10881;BME280;5493;48.884;8.338;2023-05-20T11:09:15;100045.97;;;25.11;100.00
10881;BME280;5493;48.884;8.338;2023-05-20T11:11:42;100040.09;;;24.95;100.00
10881;BME280;5493;48.884;8.338;2023-05-20T11:14:09;100045.47;;;24.91;100.00
10881;BME280;5493;48.884;8.338;2023-05-20T11:16:37;100040.28;;;24.98;100.00
10881;BME280;5493;48.884;8.338;2023-05-20T11:19:07;100034.47;;;24.30;100.00
10881;BME280;5493;48.884;8.338;2023-05-20T11:21:34;100035.31;;;24.39;100.00
10881;BME280;5493;48.884;8.338;2023-05-20T11:24:00;100032.72;;;24.82;100.00
10881;BME280;5493;48.884;8.338;2023-05-20T11:26:28;100031.66;;;24.21;100.00
10881;BME280;5493;48.884;8.338;2023-05-20T11:28:56;100030.53;;;24.22;100.00
10881;BME280;5493;48.884;8.338;2023-05-20T11:31:22;100030.00;;;23.89;100.00
10881;BME280;5493;48.884;8.338;2023-05-20T11:33:49;100031.84;;;23.80;100.00
10881;BME280;5493;48.884;8.338;2023-05-20T11:36:18;100032.00;;;24.20;100.00
10881;BME280;5493;48.884;8.338;2023-05-20T11:38:46;100024.66;;;23.35;100.00
10881;BME280;5493;48.884;8.338;2023-05-20T11:41:12;100034.72;;;23.53;100.00
10881;BME280;5493;48.884;8.338;2023-05-20T11:43:39;100027.56;;;23.66;100.00
10881;BME280;5493;48.884;8.338;2023-05-20T11:46:06;100041.97;;;23.49;100.00
10881;BME280;5493;48.884;8.338;2023-05-20T11:48:34;100023.03;;;23.70;100.00
10881;BME280;5493;48.884;8.338;2023-05-20T11:51:01;100016.38;;;23.62;100.00
10881;BME280;5493;48.884;8.338;2023-05-20T11:53:29;100017.16;;;23.85;100.00
10881;BME280;5493;48.884;8.338;2023-05-20T11:55:57;100022.06;;;23.66;100.00
10881;BME280;5493;48.884;8.338;2023-05-20T11:58:25;100017.53;;;23.47;100.00
10881;BME280;5493;48.884;8.338;2023-05-20T12:00:52;100013.22;;;23.77;100.00
10881;BME280;5493;48.884;8.338;2023-05-20T12:03:18;100014.34;;;23.76;100.00
10881;BME280;5493;48.884;8.338;2023-05-20T12:05:46;100004.16;;;24.30;100.00
10881;BME280;5493;48.884;8.338;2023-05-20T12:08:13;100001.00;;;24.14;100.00
10881;BME280;5493;48.884;8.338;2023-05-20T12:10:41;99995.88;;;24.69;100.00
10881;BME280;5493;48.884;8.338;2023-05-20T12:13:09;100009.44;;;24.88;100.00
10881;BME280;5493;48.884;8.338;2023-05-20T12:15:37;99993.72;;;25.23;100.00
10881;BME280;5493;48.884;8.338;2023-05-20T12:18:04;99989.19;;;24.62;100.00
10881;BME280;5493;48.884;8.338;2023-05-20T12:20:31;99992.41;;;25.12;100.00
10881;BME280;5493;48.884;8.338;2023-05-20T12:22:58;100001.59;;;24.81;100.00
10881;BME280;5493;48.884;8.338;2023-05-20T12:25:25;99985.44;;;25.06;100.00
10881;BME280;5493;48.884;8.338;2023-05-20T12:27:54;99980.28;;;25.64;100.00
10881;BME280;5493;48.884;8.338;2023-05-20T12:30:22;99974.06;;;25.33;100.00
10881;BME280;5493;48.884;8.338;2023-05-20T12:32:50;99979.28;;;25.09;100.00
10881;BME280;5493;48.884;8.338;2023-05-20T12:35:18;99980.13;;;24.61;100.00
10881;BME280;5493;48.884;8.338;2023-05-20T12:37:44;99970.16;;;24.34;100.00
10881;BME280;5493;48.884;8.338;2023-05-20T12:40:11;99973.94;;;24.56;100.00
10881;BME280;5493;48.884;8.338;2023-05-20T12:42:38;99986.13;;;24.24;100.00
10881;BME280;5493;48.884;8.338;2023-05-20T12:45:07;99980.72;;;25.15;100.00
10881;BME280;5493;48.884;8.338;2023-05-20T12:47:34;99980.25;;;25.30;100.00
10881;BME280;5493;48.884;8.338;2023-05-20T12:50:01;99978.78;;;25.32;100.00